Raccoon, Illinois
Current Conditions -  °F | °C
As of 8:35 AM on Thursday 23 Oct 2014 (Local Time) from KENL Reporting Station
Clear Clear  
Wind Chill: 44°   Ceiling: Unl
Heat Index: 46°   Visibility: 7mi
Dew Point: 42°   Wind: 5mph
Humidity: 85%   Direction: 140°SE
Pressure: 30.24"   Gusts: NA
Location:  38.5134°N, 89.1673°W
Report Text: KENL 231335Z AUTO 14004KT 7SM CLR 08/05 A3024 RMK AO2 T00770054
Loading
Personal Weather Stations






























Interactive Weather Map
Tropical Storm Tracking
New forecast layout! Learn more

10-Day Weather Forecast

Advertisements
Track Severe Weather on mobile